Metar Aviation Weather Data EPKT

12°C Temp
-7°C Dewpoint
% Humidity
Temperature
16 KM/H
10 MPH
9 KTS
40°
North East

Wind Speed
Clear
Conditions
Pressure 1022.92 (hPa) - 30.21 (in)
Visibility 6.2 (mi) - 10 (km)

Current Conditions
EPKT
Metar :EPKT 161200Z 04009G19KT 010V070 CAVOK 12/M07 Q1023
Tue 16th April 14:00 pm

  Metar Aviation API Data Provided by https://www.checkwx.com/ PHP scripts by weather34.com ©2019